Time;durP1;ratioP1;P1;durP2;ratioP2;P2;SDS_P1;SDS_P2;PMS_P1;PMS_P2;Temp;Humidity;BMP_temperature;BMP_pressure;BME280_temperature;BME280_humidity;BME280_pressure;Samples;Min_cycle;Max_cycle;Signal;HPM_P1;HPM_P2
2023/05/20 00:01:43;;;;;;;9.52;5.53;;;;;;;;;;4999112;28;20409;-82
2023/05/20 00:04:10;;;;;;;7.65;5.68;;;;;;;;;;4980236;28;20493;-81
2023/05/20 00:06:38;;;;;;;10.68;6.47;;;;;;;;;;4980671;28;20054;-82
2023/05/20 00:09:05;;;;;;;10.15;6.15;;;;;;;;;;4980026;28;20074;-81
2023/05/20 00:11:32;;;;;;;7.28;5.03;;;;;;;;;;4998764;28;20046;-82
2023/05/20 00:13:59;;;;;;;5.57;5.07;;;;;;;;;;4998092;28;20054;-82
2023/05/20 00:16:26;;;;;;;8.73;6.03;;;;;;;;;;4980228;28;20054;-82
2023/05/20 00:18:55;;;;;;;8.00;5.80;;;;;;;;;;4997904;28;20559;-81
2023/05/20 00:21:22;;;;;;;7.28;5.60;;;;;;;;;;4998196;28;20076;-82
2023/05/20 00:23:50;;;;;;;6.38;5.18;;;;;;;;;;4978959;28;20050;-82
2023/05/20 00:26:17;;;;;;;6.65;5.65;;;;;;;;;;4996875;28;20564;-82
2023/05/20 00:28:44;;;;;;;7.13;6.00;;;;;;;;;;4977132;28;20066;-83
2023/05/20 00:31:11;;;;;;;9.40;6.05;;;;;;;;;;4994550;28;20046;-82
2023/05/20 00:33:39;;;;;;;8.43;5.32;;;;;;;;;;4977122;28;20046;-82
2023/05/20 00:36:06;;;;;;;7.70;5.53;;;;;;;;;;4994043;28;20050;-82
2023/05/20 00:38:33;;;;;;;7.00;5.35;;;;;;;;;;4994706;28;20109;-81
2023/05/20 00:41:01;;;;;;;5.60;5.10;;;;;;;;;;4994353;28;20509;-82
2023/05/20 00:43:28;;;;;;;7.20;5.50;;;;;;;;;;4994264;28;20516;-83
2023/05/20 00:45:55;;;;;;;6.60;5.28;;;;;;;;;;4993983;28;20497;-81
2023/05/20 00:48:23;;;;;;;6.22;5.20;;;;;;;;;;4977237;28;20050;-81
2023/05/20 00:50:50;;;;;;;5.63;5.13;;;;;;;;;;4994548;28;20077;-82
2023/05/20 00:53:18;;;;;;;6.82;4.78;;;;;;;;;;4977135;28;20042;-82
2023/05/20 00:55:45;;;;;;;6.13;5.55;;;;;;;;;;4994420;28;20050;-82
2023/05/20 00:58:12;;;;;;;6.03;5.38;;;;;;;;;;4976947;28;20078;-82
2023/05/20 01:00:40;;;;;;;8.73;5.07;;;;;;;;;;4994212;28;20081;-81
2023/05/20 01:03:07;;;;;;;8.07;6.32;;;;;;;;;;4976877;28;20061;-81
2023/05/20 01:05:35;;;;;;;5.65;5.10;;;;;;;;;;4977038;28;20050;-82
2023/05/20 01:08:04;;;;;;;7.90;5.97;;;;;;;;;;4977238;28;20078;-82
2023/05/20 01:10:32;;;;;;;6.68;5.60;;;;;;;;;;4977081;28;20469;-82
2023/05/20 01:13:02;;;;;;;9.80;5.88;;;;;;;;;;4994076;28;20191;-81
2023/05/20 01:15:30;;;;;;;7.35;6.50;;;;;;;;;;4976556;28;20527;-82
2023/05/20 01:18:00;;;;;;;9.07;6.20;;;;;;;;;;4976773;28;20052;-82
2023/05/20 01:20:31;;;;;;;6.80;5.30;;;;;;;;;;4977073;28;20279;-82
2023/05/20 01:22:59;;;;;;;8.50;5.70;;;;;;;;;;4977414;28;20460;-81
2023/05/20 01:25:26;;;;;;;7.68;5.82;;;;;;;;;;4976708;28;20485;-82
2023/05/20 01:27:54;;;;;;;8.70;5.65;;;;;;;;;;4976727;28;20054;-81
2023/05/20 01:30:22;;;;;;;8.43;5.50;;;;;;;;;;4976671;28;20403;-82
2023/05/20 01:32:52;;;;;;;7.07;5.55;;;;;;;;;;4977237;28;20552;-82
2023/05/20 01:35:20;;;;;;;6.25;5.10;;;;;;;;;;4994107;28;20054;-82
2023/05/20 01:37:48;;;;;;;6.78;5.35;;;;;;;;;;4994087;28;20053;-81
2023/05/20 01:40:15;;;;;;;7.57;5.75;;;;;;;;;;5008110;28;20144;-81
2023/05/20 01:42:44;;;;;;;7.10;5.40;;;;;;;;;;5000322;28;20054;-84
2023/05/20 01:45:12;;;;;;;7.70;5.50;;;;;;;;;;5016439;28;20061;-83
2023/05/20 01:47:39;;;;;;;10.05;6.28;;;;;;;;;;4995922;28;20060;-83
2023/05/20 01:50:07;;;;;;;7.60;6.65;;;;;;;;;;4995155;28;20137;-84
2023/05/20 01:52:35;;;;;;;8.52;6.05;;;;;;;;;;4996025;28;20042;-81
2023/05/20 01:55:02;;;;;;;8.57;6.43;;;;;;;;;;4994748;28;20050;-84
2023/05/20 01:57:29;;;;;;;8.25;6.60;;;;;;;;;;5010854;28;20054;-83
2023/05/20 01:59:57;;;;;;;8.35;6.13;;;;;;;;;;4993906;28;20081;-84
2023/05/20 02:02:24;;;;;;;8.27;6.30;;;;;;;;;;4987610;28;20057;-82
2023/05/20 02:04:53;;;;;;;6.95;6.35;;;;;;;;;;4992678;28;20629;-81
2023/05/20 02:07:20;;;;;;;7.57;6.90;;;;;;;;;;4975215;28;20054;-82
2023/05/20 02:09:48;;;;;;;7.70;6.72;;;;;;;;;;4992891;28;20498;-82
2023/05/20 02:12:15;;;;;;;9.27;6.68;;;;;;;;;;4975629;28;20556;-81
2023/05/20 02:14:48;;;;;;;13.80;7.53;;;;;;;;;;4976164;28;20054;-82
2023/05/20 02:17:16;;;;;;;9.18;6.47;;;;;;;;;;4977393;28;20054;-82
2023/05/20 02:19:44;;;;;;;10.07;7.38;;;;;;;;;;4982439;28;20057;-83
2023/05/20 02:22:11;;;;;;;8.32;7.05;;;;;;;;;;4987064;28;20054;-83
2023/05/20 02:24:39;;;;;;;9.00;7.30;;;;;;;;;;5005677;28;20457;-83
2023/05/20 02:27:06;;;;;;;12.10;7.32;;;;;;;;;;4987152;28;20104;-83
2023/05/20 02:29:34;;;;;;;11.60;7.57;;;;;;;;;;4987241;28;20109;-82
2023/05/20 02:32:01;;;;;;;10.27;7.97;;;;;;;;;;4986161;28;20101;-82
2023/05/20 02:34:29;;;;;;;12.10;8.48;;;;;;;;;;4985078;28;20051;-83
2023/05/20 02:36:56;;;;;;;10.50;7.78;;;;;;;;;;4984673;28;20066;-83
2023/05/20 02:39:24;;;;;;;9.65;7.43;;;;;;;;;;4984751;28;20065;-81
2023/05/20 02:41:51;;;;;;;8.52;7.63;;;;;;;;;;4985250;28;20065;-83
2023/05/20 02:44:18;;;;;;;9.18;8.25;;;;;;;;;;4984056;28;20050;-84
2023/05/20 02:46:45;;;;;;;11.27;8.55;;;;;;;;;;5002024;28;20054;-82
2023/05/20 02:49:12;;;;;;;10.95;8.52;;;;;;;;;;5002054;28;20510;-82
2023/05/20 02:51:40;;;;;;;13.32;9.07;;;;;;;;;;4983588;28;20580;-83
2023/05/20 02:54:07;;;;;;;11.48;9.57;;;;;;;;;;4982362;28;20077;-83
2023/05/20 02:56:34;;;;;;;9.70;8.70;;;;;;;;;;4982661;28;20417;-83
2023/05/20 02:59:03;;;;;;;14.45;9.63;;;;;;;;;;4985300;28;20077;-82
2023/05/20 03:01:32;;;;;;;12.00;10.10;;;;;;;;;;4985581;28;20050;-83
2023/05/20 03:04:00;;;;;;;13.50;10.10;;;;;;;;;;4985335;28;20165;-83
2023/05/20 03:06:29;;;;;;;12.50;10.45;;;;;;;;;;5003163;28;20053;-82
2023/05/20 03:08:56;;;;;;;11.80;9.05;;;;;;;;;;4985473;28;20050;-83
2023/05/20 03:11:24;;;;;;;11.57;8.73;;;;;;;;;;4984402;28;20047;-83
2023/05/20 03:13:52;;;;;;;11.75;9.35;;;;;;;;;;5002787;28;20053;-82
2023/05/20 03:16:20;;;;;;;12.85;9.27;;;;;;;;;;4982883;28;20054;-83
2023/05/20 03:18:48;;;;;;;13.35;9.65;;;;;;;;;;4983429;28;20074;-83
2023/05/20 03:21:15;;;;;;;13.30;9.77;;;;;;;;;;4982608;28;20394;-83
2023/05/20 03:23:42;;;;;;;15.35;9.75;;;;;;;;;;5000917;28;20047;-83
2023/05/20 03:26:10;;;;;;;14.40;9.27;;;;;;;;;;4982449;28;20077;-83
2023/05/20 03:28:37;;;;;;;12.77;9.13;;;;;;;;;;4982587;28;20046;-82
2023/05/20 03:31:05;;;;;;;12.13;9.50;;;;;;;;;;5000301;28;20112;-82
2023/05/20 03:33:34;;;;;;;15.27;10.65;;;;;;;;;;4982521;28;20105;-83
2023/05/20 03:36:01;;;;;;;11.95;10.63;;;;;;;;;;5000207;28;20069;-83
2023/05/20 03:38:28;;;;;;;13.25;10.82;;;;;;;;;;5000205;28;20097;-83
2023/05/20 03:40:56;;;;;;;14.45;11.25;;;;;;;;;;4977802;28;20104;-83
2023/05/20 03:43:24;;;;;;;14.48;10.35;;;;;;;;;;4977791;28;20054;-83
2023/05/20 03:45:51;;;;;;;11.93;9.38;;;;;;;;;;4977986;28;20117;-82
2023/05/20 03:48:19;;;;;;;14.35;10.65;;;;;;;;;;4977836;28;20056;-82
2023/05/20 03:50:46;;;;;;;17.60;11.80;;;;;;;;;;4977987;28;20050;-82
2023/05/20 03:53:13;;;;;;;13.13;10.90;;;;;;;;;;4994897;28;20232;-82
2023/05/20 03:55:41;;;;;;;18.83;11.57;;;;;;;;;;4978131;28;20046;-82
2023/05/20 03:58:08;;;;;;;14.20;11.15;;;;;;;;;;4977703;28;20050;-83
2023/05/20 04:00:35;;;;;;;15.85;11.48;;;;;;;;;;4977808;28;20086;-82
2023/05/20 04:03:03;;;;;;;16.45;11.38;;;;;;;;;;4977584;28;20050;-82
2023/05/20 04:05:31;;;;;;;16.50;11.73;;;;;;;;;;4977998;28;20042;-82
2023/05/20 04:07:58;;;;;;;12.95;10.95;;;;;;;;;;4977703;28;20046;-82
2023/05/20 04:10:25;;;;;;;15.02;10.93;;;;;;;;;;4977359;28;20050;-82
2023/05/20 04:12:52;;;;;;;18.58;12.38;;;;;;;;;;4977844;28;20065;-83
2023/05/20 04:15:22;;;;;;;19.67;12.80;;;;;;;;;;4977601;28;20112;-83
2023/05/20 04:17:51;;;;;;;16.27;12.63;;;;;;;;;;4995046;28;20165;-83
2023/05/20 04:20:18;;;;;;;17.27;12.27;;;;;;;;;;4995139;28;20097;-83
2023/05/20 04:22:47;;;;;;;15.20;12.02;;;;;;;;;;4977648;28;20085;-82
2023/05/20 04:25:14;;;;;;;14.80;12.38;;;;;;;;;;4977675;28;20055;-84
2023/05/20 04:27:42;;;;;;;20.27;12.90;;;;;;;;;;4995164;28;20046;-83
2023/05/20 04:30:10;;;;;;;16.10;11.68;;;;;;;;;;4994823;28;20101;-82
2023/05/20 04:32:37;;;;;;;17.90;12.85;;;;;;;;;;4977748;28;20050;-83
2023/05/20 04:35:10;;;;;;;14.32;11.85;;;;;;;;;;4994223;28;20050;-82
2023/05/20 04:37:38;;;;;;;19.65;12.80;;;;;;;;;;4994208;28;20398;-82
2023/05/20 04:40:06;;;;;;;18.52;13.35;;;;;;;;;;4986540;28;20097;-83
2023/05/20 04:42:34;;;;;;;16.50;12.32;;;;;;;;;;4989813;28;20497;-83
2023/05/20 04:45:03;;;;;;;14.63;11.98;;;;;;;;;;4988039;28;20057;-84
2023/05/20 04:47:30;;;;;;;18.35;13.05;;;;;;;;;;4987961;28;20050;-82
2023/05/20 04:49:57;;;;;;;17.35;13.27;;;;;;;;;;4977461;28;20129;-83
2023/05/20 04:52:25;;;;;;;16.48;13.43;;;;;;;;;;4977585;28;20050;-83
2023/05/20 04:54:52;;;;;;;17.65;12.55;;;;;;;;;;4976993;28;20564;-82
2023/05/20 04:57:20;;;;;;;16.23;13.43;;;;;;;;;;4994664;28;20050;-83
2023/05/20 04:59:47;;;;;;;15.73;12.70;;;;;;;;;;4977376;28;20136;-82
2023/05/20 05:02:14;;;;;;;19.63;14.60;;;;;;;;;;4977245;28;20066;-81
2023/05/20 05:04:42;;;;;;;18.98;15.02;;;;;;;;;;4978252;28;20050;-84
2023/05/20 05:07:09;;;;;;;21.25;13.52;;;;;;;;;;4979781;28;20039;-83
2023/05/20 05:09:36;;;;;;;19.38;14.52;;;;;;;;;;4980551;28;20050;-83
2023/05/20 05:12:04;;;;;;;19.27;15.10;;;;;;;;;;4979456;28;20417;-84
2023/05/20 05:17:00;;;;;;;20.95;14.90;;;;;;;;;;4935496;29;19923;-77
2023/05/20 05:19:27;;;;;;;19.08;15.45;;;;;;;;;;4936841;29;20048;-77
2023/05/20 05:21:55;;;;;;;20.35;15.93;;;;;;;;;;4920067;29;20052;-77
2023/05/20 05:24:22;;;;;;;19.13;14.57;;;;;;;;;;4936880;29;20043;-77
2023/05/20 05:26:53;;;;;;;22.90;16.35;;;;;;;;;;4936667;29;20387;-77
2023/05/20 05:29:20;;;;;;;20.70;15.73;;;;;;;;;;4936832;29;20051;-77
2023/05/20 05:31:47;;;;;;;22.05;15.57;;;;;;;;;;4920010;29;20062;-76
2023/05/20 05:34:15;;;;;;;20.95;16.00;;;;;;;;;;4920305;29;20047;-77
2023/05/20 05:36:42;;;;;;;21.10;16.05;;;;;;;;;;4920002;29;20469;-77
2023/05/20 05:39:09;;;;;;;19.27;14.70;;;;;;;;;;4937146;29;20055;-78
2023/05/20 05:41:37;;;;;;;24.27;17.23;;;;;;;;;;4937144;29;20134;-78
2023/05/20 05:44:04;;;;;;;18.98;16.17;;;;;;;;;;4920417;29;20059;-77
2023/05/20 05:46:32;;;;;;;22.20;16.42;;;;;;;;;;4919994;29;20204;-78
2023/05/20 05:48:59;;;;;;;23.40;16.83;;;;;;;;;;4920634;29;20051;-81
2023/05/20 05:51:27;;;;;;;23.75;17.63;;;;;;;;;;4920199;29;20056;-77
2023/05/20 05:53:55;;;;;;;23.50;18.30;;;;;;;;;;4937835;29;20048;-79
2023/05/20 05:56:22;;;;;;;22.50;17.75;;;;;;;;;;4920907;29;20079;-79
2023/05/20 05:58:49;;;;;;;22.25;17.67;;;;;;;;;;4942445;29;20110;-80
2023/05/20 06:01:17;;;;;;;23.58;18.08;;;;;;;;;;4936585;29;20056;-77
2023/05/20 06:03:44;;;;;;;25.83;19.08;;;;;;;;;;4919604;29;20059;-77
2023/05/20 06:06:11;;;;;;;22.73;17.30;;;;;;;;;;4919003;29;20044;-77
2023/05/20 06:08:39;;;;;;;25.50;18.50;;;;;;;;;;4919497;29;20051;-77
2023/05/20 06:11:06;;;;;;;23.45;18.23;;;;;;;;;;4919571;29;20043;-77
2023/05/20 06:13:35;;;;;;;22.08;18.40;;;;;;;;;;4919341;29;20051;-76
2023/05/20 06:16:02;;;;;;;21.35;17.83;;;;;;;;;;4935852;29;20063;-77
2023/05/20 06:18:29;;;;;;;21.98;17.27;;;;;;;;;;4936545;29;20059;-77
2023/05/20 06:20:57;;;;;;;23.23;17.27;;;;;;;;;;4919524;29;20107;-77
2023/05/20 06:23:25;;;;;;;23.45;18.33;;;;;;;;;;4919451;29;20457;-77
2023/05/20 06:25:52;;;;;;;23.02;17.23;;;;;;;;;;4919532;29;20059;-79
2023/05/20 06:28:20;;;;;;;20.73;17.65;;;;;;;;;;4919256;29;20058;-77
2023/05/20 06:30:47;;;;;;;24.10;17.65;;;;;;;;;;4919380;29;20106;-77
2023/05/20 06:33:16;;;;;;;21.10;17.15;;;;;;;;;;4937975;29;20062;-77
2023/05/20 06:35:43;;;;;;;24.25;16.40;;;;;;;;;;4940586;29;20051;-78
2023/05/20 06:38:11;;;;;;;20.65;17.27;;;;;;;;;;4940243;29;20059;-78
2023/05/20 06:40:39;;;;;;;20.38;16.33;;;;;;;;;;4923520;29;20572;-77
2023/05/20 06:43:07;;;;;;;23.83;17.65;;;;;;;;;;4923492;29;20088;-78
2023/05/20 06:45:35;;;;;;;23.63;17.83;;;;;;;;;;4940280;29;20059;-77
2023/05/20 06:48:02;;;;;;;23.17;18.20;;;;;;;;;;4941450;29;20476;-78
2023/05/20 06:50:29;;;;;;;19.27;15.73;;;;;;;;;;4940739;29;20051;-77
2023/05/20 06:52:57;;;;;;;21.33;17.33;;;;;;;;;;4922709;29;20048;-77
2023/05/20 06:55:25;;;;;;;20.65;17.40;;;;;;;;;;4939775;29;20095;-77
2023/05/20 06:57:52;;;;;;;23.38;16.83;;;;;;;;;;4924499;29;20048;-78
2023/05/20 07:00:19;;;;;;;22.65;16.85;;;;;;;;;;4923183;29;20116;-77
2023/05/20 07:02:47;;;;;;;21.17;17.90;;;;;;;;;;4923130;29;20055;-77
2023/05/20 07:05:14;;;;;;;22.15;17.25;;;;;;;;;;4939668;29;20106;-77
2023/05/20 07:07:41;;;;;;;22.25;18.25;;;;;;;;;;4940072;29;20051;-78
2023/05/20 07:10:09;;;;;;;21.45;16.83;;;;;;;;;;4940169;29;20436;-80
2023/05/20 07:12:36;;;;;;;22.80;18.17;;;;;;;;;;4923743;29;20044;-79
2023/05/20 07:15:03;;;;;;;21.35;17.38;;;;;;;;;;4926698;29;20420;-79
2023/05/20 07:17:31;;;;;;;21.33;16.63;;;;;;;;;;4928362;29;20055;-77
2023/05/20 07:19:59;;;;;;;22.77;16.73;;;;;;;;;;4928031;29;20055;-78
2023/05/20 07:22:26;;;;;;;19.88;16.48;;;;;;;;;;4943759;29;20146;-77
2023/05/20 07:24:59;;;;;;;20.83;17.08;;;;;;;;;;4926485;29;20521;-79
2023/05/20 07:27:27;;;;;;;21.92;17.38;;;;;;;;;;4928007;29;20058;-77
2023/05/20 07:29:55;;;;;;;20.48;16.55;;;;;;;;;;4926053;29;20083;-79
2023/05/20 07:32:22;;;;;;;19.73;16.95;;;;;;;;;;4922587;29;20056;-77
2023/05/20 07:34:50;;;;;;;17.48;15.57;;;;;;;;;;4939904;29;20071;-81
2023/05/20 07:37:18;;;;;;;18.13;15.27;;;;;;;;;;4926258;29;20070;-81
2023/05/20 07:39:45;;;;;;;21.27;16.00;;;;;;;;;;4943452;29;20058;-81
2023/05/20 07:42:13;;;;;;;20.05;16.70;;;;;;;;;;4943945;29;20056;-82
2023/05/20 07:44:41;;;;;;;23.00;17.55;;;;;;;;;;4942545;29;20425;-82
2023/05/20 07:47:08;;;;;;;24.55;17.27;;;;;;;;;;4926205;29;20465;-81
2023/05/20 07:49:36;;;;;;;20.80;17.13;;;;;;;;;;4925513;29;20087;-80
2023/05/20 07:52:03;;;;;;;20.45;15.95;;;;;;;;;;4926053;29;20079;-81
2023/05/20 07:54:31;;;;;;;24.48;17.70;;;;;;;;;;4925965;29;20079;-81
2023/05/20 07:56:59;;;;;;;20.55;16.35;;;;;;;;;;4925920;29;20425;-81
2023/05/20 07:59:26;;;;;;;23.63;19.13;;;;;;;;;;4943719;29;20056;-81
2023/05/20 08:01:53;;;;;;;17.85;14.50;;;;;;;;;;4943853;29;20055;-81
2023/05/20 08:04:21;;;;;;;21.63;17.13;;;;;;;;;;4925703;29;20572;-80
2023/05/20 08:06:48;;;;;;;20.30;16.40;;;;;;;;;;4942339;29;20126;-81
2023/05/20 08:09:15;;;;;;;20.05;16.55;;;;;;;;;;4925354;29;20052;-82
2023/05/20 08:11:43;;;;;;;17.83;15.55;;;;;;;;;;4925576;29;20576;-82
2023/05/20 08:14:13;;;;;;;23.65;17.33;;;;;;;;;;4926427;29;20048;-82
2023/05/20 08:16:42;;;;;;;20.75;16.38;;;;;;;;;;4926159;29;20060;-81
2023/05/20 08:19:09;;;;;;;18.02;15.20;;;;;;;;;;4926994;29;20508;-80
2023/05/20 08:21:37;;;;;;;20.40;16.33;;;;;;;;;;4927454;29;20059;-81
2023/05/20 08:24:05;;;;;;;19.25;14.93;;;;;;;;;;4944804;29;20086;-82
2023/05/20 08:26:32;;;;;;;21.00;15.88;;;;;;;;;;4928608;29;20055;-81
2023/05/20 08:28:59;;;;;;;18.42;15.40;;;;;;;;;;4927307;29;20279;-81
2023/05/20 08:31:27;;;;;;;21.15;15.55;;;;;;;;;;4928552;29;20077;-81
2023/05/20 08:33:54;;;;;;;24.48;16.02;;;;;;;;;;4926329;29;20056;-81
2023/05/20 08:36:22;;;;;;;21.63;15.27;;;;;;;;;;4923280;29;20047;-81
2023/05/20 08:38:49;;;;;;;17.95;14.38;;;;;;;;;;4939877;29;20051;-81
2023/05/20 08:41:17;;;;;;;18.15;14.68;;;;;;;;;;4939034;29;20572;-81
2023/05/20 08:43:44;;;;;;;20.25;15.13;;;;;;;;;;4940013;29;20506;-80
2023/05/20 08:46:11;;;;;;;19.10;15.98;;;;;;;;;;4922281;29;20048;-82
2023/05/20 08:48:39;;;;;;;21.33;14.20;;;;;;;;;;4922815;29;20139;-80
2023/05/20 08:51:09;;;;;;;17.45;14.40;;;;;;;;;;4922396;29;20048;-81
2023/05/20 08:53:36;;;;;;;16.95;15.02;;;;;;;;;;4923202;29;20051;-81
2023/05/20 08:56:04;;;;;;;17.92;14.60;;;;;;;;;;4921560;29;20048;-79
2023/05/20 08:58:31;;;;;;;16.85;13.30;;;;;;;;;;4920409;29;20058;-77
2023/05/20 09:00:59;;;;;;;18.90;13.35;;;;;;;;;;4920510;29;20059;-77
2023/05/20 09:03:27;;;;;;;15.32;13.35;;;;;;;;;;4920307;29;20489;-77
2023/05/20 09:06:02;;;;;;;15.88;13.77;;;;;;;;;;4919991;29;20054;-77
2023/05/20 09:08:30;;;;;;;16.45;13.85;;;;;;;;;;4937333;29;20051;-77
2023/05/20 09:10:57;;;;;;;15.30;13.55;;;;;;;;;;4940589;29;20054;-78
2023/05/20 09:13:25;;;;;;;17.55;13.50;;;;;;;;;;4938331;29;20489;-78
2023/05/20 09:15:52;;;;;;;15.20;13.60;;;;;;;;;;4921438;29;20114;-80
2023/05/20 09:18:20;;;;;;;17.27;13.75;;;;;;;;;;4921412;29;20060;-79
2023/05/20 09:20:51;;;;;;;14.93;13.15;;;;;;;;;;4920265;29;20080;-78
2023/05/20 09:23:21;;;;;;;15.02;13.43;;;;;;;;;;4919845;29;20106;-77
2023/05/20 09:25:51;;;;;;;18.67;13.45;;;;;;;;;;4936758;29;20055;-77
2023/05/20 09:28:19;;;;;;;18.20;12.50;;;;;;;;;;4919895;29;20052;-77
2023/05/20 09:30:50;;;;;;;15.57;12.35;;;;;;;;;;4937213;29;20512;-77
2023/05/20 09:33:17;;;;;;;16.25;12.95;;;;;;;;;;4920043;29;20059;-77
2023/05/20 09:35:44;;;;;;;15.27;11.65;;;;;;;;;;4937394;29;20051;-78
2023/05/20 09:38:13;;;;;;;14.57;12.85;;;;;;;;;;4920327;29;20052;-78
2023/05/20 09:40:43;;;;;;;15.13;12.18;;;;;;;;;;4920303;29;20543;-80
2023/05/20 09:43:11;;;;;;;17.65;13.52;;;;;;;;;;4920273;29;20123;-77
2023/05/20 09:45:38;;;;;;;16.38;12.50;;;;;;;;;;4920226;29;20055;-80
2023/05/20 09:48:07;;;;;;;16.75;12.75;;;;;;;;;;4922737;29;20048;-79
2023/05/20 09:50:35;;;;;;;15.32;12.27;;;;;;;;;;4922103;29;20143;-79
2023/05/20 09:53:03;;;;;;;13.30;11.55;;;;;;;;;;4937195;29;20520;-78
2023/05/20 09:55:30;;;;;;;16.48;12.10;;;;;;;;;;4937877;29;20083;-79
2023/05/20 09:58:01;;;;;;;13.13;11.02;;;;;;;;;;4921324;29;20424;-80
2023/05/20 10:00:29;;;;;;;13.30;11.85;;;;;;;;;;4920702;29;20087;-79
2023/05/20 10:02:57;;;;;;;14.32;11.77;;;;;;;;;;4937367;29;20051;-79
2023/05/20 10:05:30;;;;;;;13.82;12.32;;;;;;;;;;4919675;29;20055;-78
2023/05/20 10:08:01;;;;;;;13.95;12.15;;;;;;;;;;4920921;29;20076;-77
2023/05/20 10:10:48;;;;;;;12.93;11.23;;;;;;;;;;4923162;29;20103;-78
2023/05/20 10:13:15;;;;;;;14.57;12.02;;;;;;;;;;4923170;29;20047;-79
2023/05/20 10:16:00;;;;;;;13.15;11.82;;;;;;;;;;4923115;29;20119;-77
2023/05/20 10:18:36;;;;;;;13.43;11.88;;;;;;;;;;4939946;29;20103;-78
2023/05/20 10:21:14;;;;;;;12.57;11.27;;;;;;;;;;4940038;29;20493;-78
2023/05/20 10:23:41;;;;;;;13.07;11.68;;;;;;;;;;4940432;29;20060;-78
2023/05/20 10:26:08;;;;;;;13.35;11.30;;;;;;;;;;4939636;29;20426;-77
2023/05/20 10:28:37;;;;;;;13.75;11.60;;;;;;;;;;4939889;29;20051;-78
2023/05/20 10:31:17;;;;;;;14.80;11.02;;;;;;;;;;4922900;29;20051;-78
2023/05/20 10:33:45;;;;;;;13.48;11.10;;;;;;;;;;4923216;29;20417;-78
2023/05/20 10:36:26;;;;;;;15.23;11.00;;;;;;;;;;4923060;29;20066;-79
2023/05/20 10:38:54;;;;;;;15.13;11.15;;;;;;;;;;4940225;29;20052;-79
2023/05/20 10:41:27;;;;;;;12.55;10.85;;;;;;;;;;4923268;29;20110;-78
2023/05/20 10:44:01;;;;;;;15.55;13.07;;;;;;;;;;4923252;29;20054;-78
2023/05/20 10:46:30;;;;;;;13.15;11.32;;;;;;;;;;4923563;29;20051;-78
2023/05/20 10:49:21;;;;;;;12.23;10.65;;;;;;;;;;4925648;29;20044;-78
2023/05/20 10:51:54;;;;;;;12.52;11.00;;;;;;;;;;4924504;29;20048;-78
2023/05/20 10:54:22;;;;;;;14.35;10.68;;;;;;;;;;4923457;29;20047;-78
2023/05/20 10:56:53;;;;;;;14.02;10.70;;;;;;;;;;4923152;29;20069;-80
2023/05/20 10:59:21;;;;;;;12.20;11.00;;;;;;;;;;4940465;29;20481;-81
2023/05/20 11:01:48;;;;;;;11.68;9.88;;;;;;;;;;4923517;29;20111;-79
2023/05/20 11:04:16;;;;;;;11.63;10.10;;;;;;;;;;4942253;29;20395;-80
2023/05/20 11:06:54;;;;;;;12.90;9.95;;;;;;;;;;4923391;29;20224;-78
2023/05/20 11:09:21;;;;;;;11.02;9.93;;;;;;;;;;4939665;29;20047;-78
2023/05/20 11:11:49;;;;;;;12.65;10.10;;;;;;;;;;4938379;29;20076;-80
2023/05/20 11:14:18;;;;;;;11.45;10.27;;;;;;;;;;4922749;29;20058;-79
2023/05/20 11:16:47;;;;;;;11.85;9.60;;;;;;;;;;4991403;23;20054;-81
2023/05/20 11:19:15;;;;;;;14.05;10.60;;;;;;;;;;4999299;28;20050;-80
2023/05/20 11:21:43;;;;;;;10.73;8.95;;;;;;;;;;5016649;28;20050;-81
2023/05/20 11:24:10;;;;;;;10.52;9.05;;;;;;;;;;5016295;28;20058;-80
2023/05/20 11:26:38;;;;;;;13.45;9.20;;;;;;;;;;4998460;28;20049;-79
2023/05/20 11:29:05;;;;;;;11.10;10.00;;;;;;;;;;4999134;28;20056;-79
2023/05/20 11:31:33;;;;;;;12.95;9.07;;;;;;;;;;4999625;28;20046;-79
2023/05/20 11:34:01;;;;;;;13.55;9.88;;;;;;;;;;5016108;28;20428;-79
2023/05/20 11:36:29;;;;;;;10.13;9.13;;;;;;;;;;5016341;28;20472;-79
2023/05/20 11:38:57;;;;;;;13.63;9.60;;;;;;;;;;5016102;28;20045;-78
2023/05/20 11:41:25;;;;;;;9.95;8.95;;;;;;;;;;5016808;28;20531;-79
2023/05/20 11:43:59;;;;;;;11.80;9.73;;;;;;;;;;4998942;28;20054;-79
2023/05/20 11:46:27;;;;;;;61.08;32.60;;;;;;;;;;5015957;28;20056;-80
2023/05/20 11:48:55;;;;;;;19.33;13.90;;;;;;;;;;4998592;28;20050;-80
2023/05/20 11:51:28;;;;;;;22.60;15.50;;;;;;;;;;5016236;28;20052;-80
2023/05/20 11:53:56;;;;;;;;;;;;;;;;;;4998931;28;20053;-80
2023/05/20 11:56:23;;;;;;;10.60;9.60;;;;;;;;;;4998024;28;20311;-80
2023/05/20 11:58:50;;;;;;;16.40;10.88;;;;;;;;;;5015073;28;20054;-80
2023/05/20 12:01:17;;;;;;;51.42;29.25;;;;;;;;;;4996984;28;20060;-80
2023/05/20 12:03:49;;;;;;;12.63;10.32;;;;;;;;;;5015245;28;20053;-80
2023/05/20 12:06:17;;;;;;;26.40;16.83;;;;;;;;;;4997040;28;20050;-81
2023/05/20 12:08:46;;;;;;;49.92;29.83;;;;;;;;;;5014934;28;20077;-80
2023/05/20 12:11:13;;;;;;;44.25;26.52;;;;;;;;;;4998668;28;20497;-80
2023/05/20 12:13:40;;;;;;;15.13;11.75;;;;;;;;;;4998191;28;20045;-80
2023/05/20 12:16:08;;;;;;;13.40;11.30;;;;;;;;;;5016240;28;20176;-80
2023/05/20 12:18:35;;;;;;;19.75;14.65;;;;;;;;;;5020256;28;20424;-81
2023/05/20 12:21:02;;;;;;;25.35;17.20;;;;;;;;;;5019709;28;20050;-80
2023/05/20 12:23:32;;;;;;;12.38;10.38;;;;;;;;;;5002648;28;20053;-80
2023/05/20 12:26:00;;;;;;;15.75;12.35;;;;;;;;;;5001381;28;20081;-80
2023/05/20 12:28:27;;;;;;;12.43;10.65;;;;;;;;;;5019347;28;20050;-80
2023/05/20 12:30:54;;;;;;;15.00;10.65;;;;;;;;;;5001937;28;20048;-81
2023/05/20 12:33:22;;;;;;;12.10;10.05;;;;;;;;;;5001632;28;20096;-80
2023/05/20 12:35:49;;;;;;;12.45;10.20;;;;;;;;;;5017621;28;20050;-80
2023/05/20 12:38:16;;;;;;;12.43;10.07;;;;;;;;;;5001704;28;20050;-80
2023/05/20 12:40:43;;;;;;;14.40;11.95;;;;;;;;;;5018487;28;20515;-80
2023/05/20 12:43:10;;;;;;;13.60;11.63;;;;;;;;;;4999312;28;20049;-80
2023/05/20 12:45:38;;;;;;;17.80;12.05;;;;;;;;;;4998602;28;20057;-80
2023/05/20 12:48:06;;;;;;;23.75;17.65;;;;;;;;;;4998197;28;20046;-80
2023/05/20 12:50:34;;;;;;;12.98;11.10;;;;;;;;;;5016071;28;20057;-80
2023/05/20 12:53:01;;;;;;;11.98;10.63;;;;;;;;;;4998751;28;20061;-81
2023/05/20 12:55:29;;;;;;;12.82;10.43;;;;;;;;;;5015482;28;20119;-80
2023/05/20 12:57:56;;;;;;;11.90;10.43;;;;;;;;;;5015309;28;20054;-81
2023/05/20 13:00:23;;;;;;;11.82;10.57;;;;;;;;;;4997415;28;20050;-81
2023/05/20 13:02:51;;;;;;;11.73;10.38;;;;;;;;;;4997733;28;20054;-81
2023/05/20 13:05:19;;;;;;;14.43;11.02;;;;;;;;;;4997219;28;20074;-81
2023/05/20 13:07:46;;;;;;;11.18;9.90;;;;;;;;;;4997543;28;20042;-80
2023/05/20 13:10:13;;;;;;;11.55;10.38;;;;;;;;;;4997232;28;20108;-79
2023/05/20 13:12:44;;;;;;;13.32;10.90;;;;;;;;;;5014565;28;20452;-80
2023/05/20 13:15:13;;;;;;;13.65;10.32;;;;;;;;;;4996928;28;20045;-80
2023/05/20 13:17:44;;;;;;;11.80;10.55;;;;;;;;;;4997051;28;20487;-81
2023/05/20 13:20:11;;;;;;;11.63;10.02;;;;;;;;;;4997019;28;20132;-81
2023/05/20 13:22:39;;;;;;;19.05;14.32;;;;;;;;;;4996914;28;20057;-81
2023/05/20 13:25:06;;;;;;;12.50;11.20;;;;;;;;;;4996881;28;20049;-80
2023/05/20 13:27:34;;;;;;;14.50;11.90;;;;;;;;;;4996923;28;20042;-80
2023/05/20 13:30:01;;;;;;;13.93;11.20;;;;;;;;;;5014248;28;20049;-80
2023/05/20 13:32:28;;;;;;;11.65;10.18;;;;;;;;;;4996937;28;20050;-79
2023/05/20 13:34:56;;;;;;;15.75;11.32;;;;;;;;;;4996438;28;20056;-81
2023/05/20 13:37:23;;;;;;;15.13;12.25;;;;;;;;;;4997127;28;20137;-80
2023/05/20 13:39:50;;;;;;;12.52;10.68;;;;;;;;;;5013999;28;20050;-79
2023/05/20 13:42:17;;;;;;;14.38;11.10;;;;;;;;;;4996606;28;20060;-79
2023/05/20 13:44:45;;;;;;;11.98;10.77;;;;;;;;;;5013937;28;20057;-79
2023/05/20 13:47:12;;;;;;;12.85;10.65;;;;;;;;;;5014160;28;20464;-80
2023/05/20 13:49:40;;;;;;;10.85;9.75;;;;;;;;;;4996478;28;20591;-80
2023/05/20 13:52:08;;;;;;;15.32;11.35;;;;;;;;;;5014328;28;20050;-80
2023/05/20 13:54:35;;;;;;;12.77;10.73;;;;;;;;;;5001081;28;20049;-80
2023/05/20 13:57:06;;;;;;;14.70;10.70;;;;;;;;;;4998646;28;20081;-81
2023/05/20 13:59:34;;;;;;;12.55;10.73;;;;;;;;;;5002520;28;20050;-80
2023/05/20 14:02:01;;;;;;;12.40;10.35;;;;;;;;;;5001809;28;20061;-80
2023/05/20 14:04:36;;;;;;;12.48;10.35;;;;;;;;;;5015831;28;20061;-80
2023/05/20 14:07:04;;;;;;;12.98;11.25;;;;;;;;;;5016485;28;20046;-79
2023/05/20 14:09:35;;;;;;;14.35;10.93;;;;;;;;;;4999774;28;20077;-81
2023/05/20 14:12:02;;;;;;;13.80;10.07;;;;;;;;;;4998035;28;20045;-82
2023/05/20 14:14:29;;;;;;;11.85;10.52;;;;;;;;;;4999904;28;20041;-81
2023/05/20 14:16:57;;;;;;;14.98;11.00;;;;;;;;;;4997563;28;20053;-81
2023/05/20 14:19:24;;;;;;;12.80;11.07;;;;;;;;;;5016838;28;20053;-80
2023/05/20 14:21:52;;;;;;;14.27;10.57;;;;;;;;;;5016693;28;20054;-80
2023/05/20 14:24:19;;;;;;;12.48;11.10;;;;;;;;;;4999537;28;20045;-80
2023/05/20 14:26:49;;;;;;;12.60;11.20;;;;;;;;;;5014930;28;20057;-80
2023/05/20 14:29:17;;;;;;;16.02;10.75;;;;;;;;;;5016788;28;20081;-81
2023/05/20 14:31:44;;;;;;;12.57;10.68;;;;;;;;;;4997619;28;20050;-80